createdAt,value
2017-04-28T00:02:16.260Z,19.28
2017-04-28T00:04:44.591Z,18.43
2017-04-28T00:07:13.800Z,18.95
2017-04-28T00:09:42.169Z,20.20
2017-04-28T00:12:10.576Z,19.30
2017-04-28T00:14:38.911Z,18.67
2017-04-28T00:17:26.177Z,19.05
2017-04-28T00:19:54.489Z,19.20
2017-04-28T00:22:23.556Z,19.13
2017-04-28T00:24:51.889Z,19.70
2017-04-28T00:27:20.235Z,18.93
2017-04-28T00:29:48.570Z,20.48
2017-04-28T00:32:16.939Z,20.75
2017-04-28T00:35:02.892Z,19.10
2017-04-28T00:37:31.211Z,19.58
2017-04-28T00:39:59.562Z,18.00
2017-04-28T00:42:27.896Z,20.23
2017-04-28T00:44:56.504Z,18.53
2017-04-28T00:47:24.842Z,19.42
2017-04-28T00:49:53.166Z,20.70
2017-04-28T00:52:21.594Z,21.22
2017-04-28T00:54:50.661Z,22.68
2017-04-28T00:57:19.727Z,19.70
2017-04-28T00:59:48.374Z,20.75
2017-04-28T01:02:18.177Z,21.75
2017-04-28T01:04:46.729Z,21.55
2017-04-28T01:07:15.978Z,22.23
2017-04-28T01:09:44.305Z,21.12
2017-04-28T01:12:12.631Z,20.13
2017-04-28T01:14:40.943Z,20.50
2017-04-28T01:17:10.122Z,21.22
2017-04-28T01:19:39.193Z,20.38
2017-04-28T01:22:07.539Z,19.35
2017-04-28T01:24:35.885Z,20.35
2017-04-28T01:27:04.187Z,19.65
2017-04-28T01:29:32.539Z,19.57
2017-04-28T01:32:00.861Z,18.12
2017-04-28T01:34:30.036Z,18.40
2017-04-28T01:36:59.108Z,19.07
2017-04-28T01:39:27.427Z,18.20
2017-04-28T01:41:56.507Z,17.18
2017-04-28T01:44:24.807Z,18.97
2017-04-28T01:46:53.839Z,17.67
2017-04-28T01:49:22.764Z,18.02
2017-04-28T01:51:51.148Z,17.27
2017-04-28T01:54:19.527Z,18.80
2017-04-28T01:56:47.821Z,16.75
2017-04-28T01:59:16.145Z,18.05
2017-04-28T02:01:45.329Z,18.20
2017-04-28T02:04:13.780Z,17.28
2017-04-28T02:06:42.136Z,18.08
2017-04-28T02:09:10.512Z,16.97
2017-04-28T02:11:38.844Z,17.28
2017-04-28T02:14:07.157Z,18.53
2017-04-28T02:16:35.471Z,15.97
2017-04-28T02:19:03.820Z,17.52
2017-04-28T02:21:32.170Z,17.90
2017-04-28T02:24:00.452Z,16.52
2017-04-28T02:26:28.752Z,16.50
2017-04-28T02:28:57.064Z,15.87
2017-04-28T02:31:25.361Z,15.33
2017-04-28T02:33:53.724Z,17.88
2017-04-28T02:36:23.022Z,17.00
2017-04-28T02:38:51.381Z,16.53
2017-04-28T02:41:20.421Z,17.10
2017-04-28T02:43:48.793Z,17.15
2017-04-28T02:46:17.160Z,16.57
2017-04-28T02:48:45.804Z,15.85
2017-04-28T02:51:15.090Z,15.85
2017-04-28T02:53:43.401Z,16.12
2017-04-28T02:56:11.721Z,14.97
2017-04-28T02:58:40.864Z,15.43
2017-04-28T03:01:09.986Z,15.55
2017-04-28T03:03:38.281Z,14.88
2017-04-28T03:06:06.615Z,15.10
2017-04-28T03:08:34.900Z,16.38
2017-04-28T03:11:03.916Z,15.78
2017-04-28T03:13:32.233Z,16.35
2017-04-28T03:16:01.274Z,16.42
2017-04-28T03:18:29.624Z,15.67
2017-04-28T03:20:58.705Z,17.22
2017-04-28T03:26:01.708Z,16.70
2017-04-28T03:28:30.809Z,18.12
2017-04-28T03:30:59.114Z,19.58
2017-04-28T03:33:28.148Z,18.22
2017-04-28T03:35:56.461Z,18.47
2017-04-28T03:38:24.752Z,18.20
2017-04-28T03:40:53.111Z,19.35
2017-04-28T03:43:23.190Z,18.65
2017-04-28T03:45:52.789Z,19.03
2017-04-28T03:48:23.394Z,17.85
2017-04-28T03:50:51.713Z,19.85
2017-04-28T03:53:20.030Z,18.58
2017-04-28T03:55:49.315Z,18.60
2017-04-28T03:58:17.647Z,18.75
2017-04-28T04:00:47.528Z,18.58
2017-04-28T04:03:15.879Z,19.27
2017-04-28T04:05:44.172Z,19.25
2017-04-28T04:08:12.488Z,20.02
2017-04-28T04:10:40.808Z,18.57
2017-04-28T04:13:10.958Z,19.83
2017-04-28T04:15:39.277Z,21.67
2017-04-28T04:18:07.622Z,20.70
2017-04-28T04:20:35.953Z,21.15
2017-04-28T04:23:04.292Z,22.07
2017-04-28T04:25:32.608Z,20.27
2017-04-28T04:28:00.917Z,22.02
2017-04-28T04:30:29.275Z,22.25
2017-04-28T04:32:57.570Z,20.90
2017-04-28T04:35:25.897Z,24.07
2017-04-28T04:37:55.045Z,22.18
2017-04-28T04:40:23.331Z,22.57
2017-04-28T04:42:51.677Z,24.38
2017-04-28T04:45:20.818Z,23.45
2017-04-28T04:47:49.364Z,25.60
2017-04-28T04:50:17.687Z,23.22
2017-04-28T04:52:51.388Z,26.37
2017-04-28T04:55:20.797Z,26.02
2017-04-28T04:57:49.118Z,26.98
2017-04-28T05:00:18.316Z,24.70
2017-04-28T05:02:46.681Z,25.33
2017-04-28T05:05:15.073Z,25.45
2017-04-28T05:07:45.331Z,25.88
2017-04-28T05:10:13.766Z,26.40
2017-04-28T05:12:42.828Z,26.18
2017-04-28T05:15:11.803Z,26.73
2017-04-28T05:17:40.643Z,29.17
2017-04-28T05:20:10.598Z,25.37
2017-04-28T05:22:39.711Z,25.93
2017-04-28T05:25:08.032Z,26.23
2017-04-28T05:27:36.460Z,26.83
2017-04-28T05:30:08.254Z,26.22
2017-04-28T05:32:36.628Z,24.98
2017-04-28T05:35:05.039Z,26.20
2017-04-28T05:37:33.378Z,26.13
2017-04-28T05:40:02.770Z,26.70
2017-04-28T05:42:31.842Z,27.00
2017-04-28T05:45:00.198Z,26.32
2017-04-28T05:47:28.522Z,25.05
2017-04-28T05:49:56.865Z,25.33
2017-04-28T05:52:25.251Z,26.37
2017-04-28T05:54:53.624Z,23.63
2017-04-28T05:57:21.980Z,24.72
2017-04-28T05:59:50.328Z,21.98
2017-04-28T06:02:18.642Z,20.48
2017-04-28T06:04:48.165Z,19.37
2017-04-28T06:07:16.664Z,20.45
2017-04-28T06:09:44.984Z,18.90
2017-04-28T06:12:14.056Z,19.60
2017-04-28T06:14:42.394Z,20.55
2017-04-28T06:17:11.456Z,18.35
2017-04-28T06:19:39.818Z,19.23
2017-04-28T06:22:08.174Z,18.67
2017-04-28T06:24:36.496Z,18.38
2017-04-28T06:27:04.829Z,20.83
2017-04-28T06:29:33.155Z,20.37
2017-04-28T06:32:01.490Z,19.50
2017-04-28T06:34:30.532Z,20.27
2017-04-28T06:36:58.837Z,20.10
2017-04-28T06:39:27.195Z,19.75
2017-04-28T06:41:55.516Z,21.70
2017-04-28T06:44:24.586Z,20.03
2017-04-28T06:46:52.917Z,20.15
2017-04-28T06:49:21.999Z,20.78
2017-04-28T06:51:50.307Z,21.88
2017-04-28T06:54:18.669Z,20.30
2017-04-28T06:56:47.840Z,21.77
2017-04-28T06:59:16.158Z,21.12
2017-04-28T07:01:45.228Z,19.48
2017-04-28T07:04:13.593Z,20.88
2017-04-28T07:06:41.931Z,21.05
2017-04-28T07:09:11.018Z,18.82
2017-04-28T07:11:40.168Z,19.83
2017-04-28T07:14:08.464Z,18.57
2017-04-28T07:16:36.772Z,20.42
2017-04-28T07:19:05.087Z,18.32
2017-04-28T07:21:33.390Z,19.25
2017-04-28T07:24:01.724Z,19.65
2017-04-28T07:26:30.029Z,18.75
2017-04-28T07:28:58.784Z,18.37
2017-04-28T07:31:27.090Z,18.70
2017-04-28T07:33:56.124Z,20.22
2017-04-28T07:36:24.470Z,18.38
2017-04-28T07:38:53.523Z,19.37
2017-04-28T07:41:21.863Z,19.58
2017-04-28T07:43:50.189Z,20.00
2017-04-28T07:46:18.521Z,19.28
2017-04-28T07:48:47.433Z,19.77
2017-04-28T07:51:18.227Z,20.88
2017-04-28T07:53:46.644Z,20.57
2017-04-28T07:56:15.997Z,20.92
2017-04-28T07:58:44.314Z,20.30
2017-04-28T08:01:13.370Z,19.93
2017-04-28T08:03:41.708Z,18.75
2017-04-28T08:06:10.013Z,21.05
2017-04-28T08:08:38.360Z,20.27
2017-04-28T08:11:07.410Z,17.82
2017-04-28T08:13:35.707Z,19.25
2017-04-28T08:16:04.065Z,20.23
2017-04-28T08:18:32.381Z,18.97
2017-04-28T08:21:00.713Z,19.97
2017-04-28T08:23:29.018Z,19.45
2017-04-28T08:25:57.367Z,18.75
2017-04-28T08:28:26.410Z,18.32
2017-04-28T08:30:54.732Z,18.60
2017-04-28T08:33:23.806Z,19.85
2017-04-28T08:35:52.106Z,19.42
2017-04-28T08:38:20.440Z,18.32
2017-04-28T08:40:48.745Z,17.83
2017-04-28T08:43:17.106Z,17.48
2017-04-28T08:45:45.477Z,16.00
2017-04-28T08:48:13.797Z,16.70
2017-04-28T08:50:42.109Z,16.52
2017-04-28T08:53:12.122Z,17.75
2017-04-28T08:55:41.225Z,18.47
2017-04-28T08:58:10.393Z,15.87
2017-04-28T09:00:38.694Z,15.98
2017-04-28T09:03:06.999Z,16.78
2017-04-28T09:05:36.060Z,16.87
2017-04-28T09:08:04.388Z,17.83
2017-04-28T09:10:32.704Z,16.35
2017-04-28T09:13:01.026Z,16.70
2017-04-28T09:15:29.361Z,16.30
2017-04-28T09:17:57.651Z,15.68
2017-04-28T09:20:25.972Z,16.47
2017-04-28T09:22:54.302Z,14.87
2017-04-28T09:25:23.477Z,14.37
2017-04-28T09:27:52.542Z,15.33
2017-04-28T09:30:20.852Z,15.00
2017-04-28T09:32:49.949Z,15.80
2017-04-28T09:35:19.045Z,16.35
2017-04-28T09:37:47.345Z,14.97
2017-04-28T09:40:15.724Z,14.88
2017-04-28T09:42:44.039Z,15.35
2017-04-28T09:45:12.375Z,15.22
2017-04-28T09:47:41.438Z,17.23
2017-04-28T09:50:09.818Z,15.30
2017-04-28T09:52:38.125Z,15.47
2017-04-28T09:55:06.473Z,14.03
2017-04-28T09:57:34.796Z,15.02
2017-04-28T10:00:03.112Z,15.37
2017-04-28T10:02:31.436Z,16.30
2017-04-28T10:04:59.729Z,16.33
2017-04-28T10:07:28.062Z,15.35
2017-04-28T10:09:56.359Z,14.02
2017-04-28T10:12:24.658Z,15.95
2017-04-28T10:14:52.998Z,14.57
2017-04-28T10:17:21.309Z,14.93
2017-04-28T10:19:49.652Z,15.72
2017-04-28T10:22:18.905Z,15.83
2017-04-28T10:24:47.222Z,16.58
2017-04-28T10:27:16.458Z,17.45
2017-04-28T10:29:44.799Z,16.73
2017-04-28T10:32:13.104Z,18.00
2017-04-28T10:34:42.849Z,17.52
2017-04-28T10:37:11.161Z,17.50
2017-04-28T10:39:40.423Z,16.95
2017-04-28T10:42:08.740Z,17.48
2017-04-28T10:44:37.032Z,17.55
2017-04-28T10:47:05.362Z,17.20
2017-04-28T10:49:33.665Z,17.02
2017-04-28T10:52:02.028Z,15.25
2017-04-28T10:54:30.352Z,17.40
2017-04-28T10:56:58.663Z,16.67
2017-04-28T10:59:27.761Z,14.85
2017-04-28T11:01:56.107Z,16.65
2017-04-28T11:04:24.417Z,16.82
2017-04-28T11:06:52.709Z,15.60
2017-04-28T11:09:21.056Z,17.18
2017-04-28T11:11:49.401Z,14.87
2017-04-28T11:14:17.700Z,16.57
2017-04-28T11:16:46.070Z,16.23
2017-04-28T11:19:14.385Z,17.22
2017-04-28T11:21:42.745Z,17.68
2017-04-28T11:24:11.076Z,18.03
2017-04-28T11:26:40.081Z,17.22
2017-04-28T11:29:08.384Z,16.25
2017-04-28T11:31:37.476Z,16.88
2017-04-28T11:34:05.809Z,16.65
2017-04-28T11:36:34.187Z,17.63
2017-04-28T11:39:02.524Z,17.77
2017-04-28T11:41:31.561Z,15.98
2017-04-28T11:43:59.895Z,17.10
2017-04-28T11:46:28.233Z,17.68
2017-04-28T11:48:56.572Z,16.28
2017-04-28T11:51:24.153Z,16.87
2017-04-28T11:53:52.516Z,18.08
2017-04-28T11:56:20.820Z,17.53
2017-04-28T11:58:49.187Z,18.03
2017-04-28T12:01:18.239Z,18.38
2017-04-28T12:03:46.596Z,17.40
2017-04-28T12:06:14.903Z,17.72
2017-04-28T12:08:43.228Z,16.82
2017-04-28T12:11:12.295Z,16.92
2017-04-28T12:13:40.598Z,15.55
2017-04-28T12:16:08.904Z,17.28
2017-04-28T12:18:37.210Z,16.58
2017-04-28T12:21:05.537Z,15.53
2017-04-28T12:23:33.836Z,15.50
2017-04-28T12:26:02.869Z,16.73
2017-04-28T12:28:31.324Z,16.22
2017-04-28T12:30:59.644Z,15.82
2017-04-28T12:33:28.788Z,16.90
2017-04-28T12:35:57.157Z,15.63
2017-04-28T12:38:26.169Z,16.50
2017-04-28T12:40:54.449Z,15.32
2017-04-28T12:43:23.625Z,15.63
2017-04-28T12:45:51.921Z,15.87
2017-04-28T12:48:20.221Z,16.30
2017-04-28T12:50:49.317Z,15.23
2017-04-28T12:53:17.647Z,15.25
2017-04-28T12:55:45.948Z,18.18
2017-04-28T12:58:14.288Z,16.23
2017-04-28T13:00:42.607Z,14.62
2017-04-28T13:03:10.911Z,16.47
2017-04-28T13:05:39.306Z,16.75
2017-04-28T13:08:08.356Z,15.65
2017-04-28T13:10:36.667Z,17.52
2017-04-28T13:13:05.770Z,14.85
2017-04-28T13:15:34.090Z,15.22
2017-04-28T13:18:03.179Z,15.48
2017-04-28T13:20:32.313Z,15.32
2017-04-28T13:23:00.606Z,14.88
2017-04-28T13:25:28.901Z,16.28
2017-04-28T13:27:57.258Z,15.85
2017-04-28T13:30:25.571Z,15.17
2017-04-28T13:32:53.865Z,14.98
2017-04-28T13:35:22.213Z,15.35
2017-04-28T13:37:50.541Z,13.97
2017-04-28T13:40:18.866Z,15.42
2017-04-28T13:42:47.215Z,17.13
2017-04-28T13:45:15.532Z,14.42
2017-04-28T13:47:43.832Z,16.23
2017-04-28T13:50:12.159Z,16.20
2017-04-28T13:52:40.485Z,15.18
2017-04-28T13:55:08.800Z,17.45
2017-04-28T13:57:37.400Z,15.87
2017-04-28T14:00:05.703Z,15.72
2017-04-28T14:02:36.697Z,17.58
2017-04-28T14:05:05.029Z,16.08
2017-04-28T14:07:34.092Z,14.47
2017-04-28T14:10:02.429Z,15.20
2017-04-28T14:12:30.723Z,13.80
2017-04-28T14:14:59.028Z,14.52
2017-04-28T14:17:27.391Z,16.08
2017-04-28T14:19:55.690Z,17.00
2017-04-28T14:22:24.010Z,15.68
2017-04-28T14:24:52.330Z,15.33
2017-04-28T14:27:20.634Z,16.33
2017-04-28T14:29:48.964Z,15.78
2017-04-28T14:32:18.005Z,16.07
2017-04-28T14:34:46.321Z,14.72
2017-04-28T14:37:14.687Z,15.75
2017-04-28T14:39:42.985Z,16.70
2017-04-28T14:42:11.300Z,16.27
2017-04-28T14:44:40.448Z,15.80
2017-04-28T14:47:08.760Z,17.28
2017-04-28T14:49:37.067Z,16.63
2017-04-28T14:57:49.979Z,16.10
2017-04-28T15:00:19.051Z,15.45
2017-04-28T15:02:47.402Z,17.53
2017-04-28T15:05:16.796Z,16.37
2017-04-28T15:07:45.125Z,17.33
2017-04-28T15:10:13.483Z,17.07
2017-04-28T15:12:41.815Z,16.18
2017-04-28T15:15:10.114Z,17.80
2017-04-28T15:17:39.198Z,18.88
2017-04-28T15:20:07.630Z,19.13
2017-04-28T15:22:35.947Z,17.88
2017-04-28T15:25:04.320Z,16.07
2017-04-28T15:27:32.634Z,17.28
2017-04-28T15:30:01.756Z,18.07
2017-04-28T15:32:30.701Z,18.22
2017-04-28T15:34:59.050Z,16.80
2017-04-28T15:37:29.345Z,19.08
2017-04-28T15:39:59.026Z,17.17
2017-04-28T15:42:27.374Z,17.40
2017-04-28T15:44:55.683Z,17.90
2017-04-28T15:47:24.046Z,17.42
2017-04-28T15:49:52.382Z,15.97
2017-04-28T15:52:21.553Z,18.17
2017-04-28T15:54:50.673Z,18.22
2017-04-28T15:57:18.991Z,20.62
2017-04-28T15:59:47.450Z,17.90
2017-04-28T16:02:16.515Z,18.80
2017-04-28T16:04:44.858Z,20.87
2017-04-28T16:07:13.206Z,20.85
2017-04-28T16:09:43.478Z,20.45
2017-04-28T16:12:12.698Z,20.92
2017-04-28T16:14:41.730Z,20.03
2017-04-28T16:17:10.104Z,20.45
2017-04-28T16:19:38.444Z,21.17
2017-04-28T16:22:06.757Z,19.35
2017-04-28T16:24:35.121Z,18.82
2017-04-28T16:27:03.429Z,19.22
2017-04-28T16:29:31.741Z,18.90
2017-04-28T16:32:00.843Z,20.48
2017-04-28T16:34:29.920Z,20.32
2017-04-28T16:36:59.242Z,21.12
2017-04-28T16:39:27.615Z,18.80
2017-04-28T16:42:00.291Z,20.67
2017-04-28T16:44:28.643Z,21.35
2017-04-28T16:46:57.012Z,22.05
2017-04-28T16:49:25.390Z,21.57
2017-04-28T16:51:53.713Z,22.67
2017-04-28T16:57:15.590Z,19.50
2017-04-28T16:59:43.966Z,22.15
2017-04-28T17:02:13.475Z,21.17
2017-04-28T17:04:41.868Z,22.83
2017-04-28T17:07:10.205Z,20.62
2017-04-28T17:09:38.534Z,23.05
2017-04-28T17:12:06.944Z,22.83
2017-04-28T17:14:35.558Z,22.15
2017-04-28T17:17:03.932Z,22.48
2017-04-28T17:19:32.247Z,23.77
2017-04-28T17:22:00.630Z,23.53
2017-04-28T17:24:29.717Z,21.90
2017-04-28T17:29:50.338Z,23.27
2017-04-28T17:32:19.489Z,22.30
2017-04-28T17:34:48.805Z,23.02
2017-04-28T17:37:17.163Z,24.02
2017-04-28T17:39:45.494Z,23.15
2017-04-28T17:42:13.851Z,25.63
2017-04-28T17:44:42.171Z,23.77
2017-04-28T17:47:10.546Z,24.07
2017-04-28T17:55:25.759Z,22.78
2017-04-28T17:57:56.161Z,25.18
2017-04-28T18:00:24.497Z,25.20
2017-04-28T18:05:54.229Z,24.12
2017-04-28T18:10:50.948Z,23.22
2017-04-28T18:13:20.014Z,26.12
2017-04-28T18:15:48.320Z,28.13
2017-04-28T18:18:16.600Z,24.60
2017-04-28T18:20:44.913Z,25.30
2017-04-28T18:23:13.231Z,24.38
2017-04-28T18:25:41.514Z,24.95
2017-04-28T18:28:09.789Z,25.28
2017-04-28T18:30:38.121Z,23.78
2017-04-28T18:33:06.418Z,24.22
2017-04-28T18:35:34.738Z,22.48
2017-04-28T18:38:03.068Z,24.52
2017-04-28T18:40:31.357Z,24.17
2017-04-28T18:42:59.656Z,24.57
2017-04-28T18:45:27.981Z,23.72
2017-04-28T18:47:57.004Z,26.63
2017-04-28T18:50:25.282Z,25.73
2017-04-28T18:52:53.664Z,27.37
2017-04-28T18:55:21.944Z,27.95
2017-04-28T18:57:50.243Z,24.33
2017-04-28T19:00:18.569Z,26.48
2017-04-28T19:02:47.650Z,27.50
2017-04-28T19:05:16.670Z,25.95
2017-04-28T19:07:44.993Z,27.47
2017-04-28T19:10:13.290Z,27.48
2017-04-28T19:12:41.569Z,27.05
2017-04-28T19:15:09.893Z,25.03
2017-04-28T19:17:38.192Z,27.85
2017-04-28T19:20:06.473Z,27.62
2017-04-28T19:22:34.805Z,26.83
2017-04-28T19:25:03.839Z,27.08
2017-04-28T19:27:34.163Z,24.32
2017-04-28T19:30:02.440Z,25.17
2017-04-28T19:32:30.732Z,21.15
2017-04-28T19:34:59.077Z,18.27
2017-04-28T19:37:27.369Z,14.07
2017-04-28T19:39:55.657Z,15.03
2017-04-28T19:42:24.127Z,10.33
2017-04-28T19:44:53.129Z,9.58
2017-04-28T19:47:21.427Z,11.08
2017-04-28T19:49:49.781Z,12.20
2017-04-28T19:52:18.073Z,12.57
2017-04-28T19:54:46.348Z,11.72
2017-04-28T19:57:14.681Z,11.42
2017-04-28T19:59:43.705Z,12.50
2017-04-28T20:02:11.992Z,12.38
2017-04-28T20:04:40.317Z,13.63
2017-04-28T20:07:08.603Z,12.87
2017-04-28T20:09:36.884Z,11.28
2017-04-28T20:12:05.208Z,12.53
2017-04-28T20:14:33.493Z,13.83
2017-04-28T20:17:01.768Z,13.18
2017-04-28T20:19:30.096Z,12.77
2017-04-28T20:21:59.129Z,12.38
2017-04-28T20:24:27.417Z,11.72
2017-04-28T20:26:55.753Z,13.05
2017-04-28T20:29:24.774Z,13.63
2017-04-28T20:31:53.062Z,14.40
2017-04-28T20:34:21.432Z,14.68
2017-04-28T20:36:49.721Z,17.53
2017-04-28T20:39:18.014Z,18.72
2017-04-28T20:41:46.337Z,19.62
2017-04-28T20:44:15.468Z,19.75
2017-04-28T20:46:43.768Z,21.65
2017-04-28T20:49:12.076Z,22.47
2017-04-28T20:51:40.372Z,23.27
2017-04-28T20:54:08.674Z,23.38
2017-04-28T20:56:36.999Z,25.02
2017-04-28T20:59:05.292Z,24.58
2017-04-28T21:01:33.588Z,24.10
2017-04-28T21:04:02.661Z,24.05
2017-04-28T21:06:30.932Z,26.00
2017-04-28T21:08:59.213Z,23.58
2017-04-28T21:11:27.536Z,24.62
2017-04-28T21:13:55.816Z,25.88
2017-04-28T21:16:24.098Z,24.17
2017-04-28T21:18:52.421Z,25.53
2017-04-28T21:21:20.711Z,27.53
2017-04-28T21:23:49.027Z,25.20
2017-04-28T21:26:17.358Z,24.00
2017-04-28T21:28:45.635Z,25.77
2017-04-28T21:31:13.919Z,24.88
2017-04-28T21:33:42.237Z,24.20
2017-04-28T21:36:11.257Z,24.95
2017-04-28T21:38:39.544Z,22.20
2017-04-28T21:41:07.863Z,25.03
2017-04-28T21:43:36.149Z,25.82
2017-04-28T21:46:05.182Z,24.57
2017-04-28T21:48:33.504Z,24.38
2017-04-28T21:51:01.879Z,23.55
2017-04-28T21:53:30.371Z,24.45
2017-04-28T21:55:59.499Z,24.53
2017-04-28T21:58:27.788Z,26.48
2017-04-28T22:00:56.108Z,23.15
2017-04-28T22:03:24.590Z,24.77
2017-04-28T22:05:52.874Z,25.52
2017-04-28T22:08:21.173Z,25.33
2017-04-28T22:10:49.506Z,24.78
2017-04-28T22:13:17.786Z,23.60
2017-04-28T22:16:01.007Z,24.25
2017-04-28T22:18:29.288Z,24.18
2017-04-28T22:20:57.569Z,23.48
2017-04-28T22:23:25.893Z,24.12
2017-04-28T22:25:54.195Z,25.53
2017-04-28T22:28:23.236Z,24.15
2017-04-28T22:30:51.553Z,24.05
2017-04-28T22:33:20.591Z,26.53
2017-04-28T22:35:48.873Z,25.77
2017-04-28T22:38:17.203Z,25.20
2017-04-28T22:40:46.285Z,25.38
2017-04-28T22:43:14.572Z,26.97
2017-04-28T22:45:42.913Z,27.33
2017-04-28T22:48:11.256Z,26.25
2017-04-28T22:50:40.284Z,25.78
2017-04-28T22:53:08.609Z,27.50
2017-04-28T22:55:37.626Z,27.63
2017-04-28T22:58:05.923Z,27.10
2017-04-28T23:00:34.248Z,27.57
2017-04-28T23:03:02.537Z,26.82
2017-04-28T23:05:30.828Z,26.93
2017-04-28T23:07:59.896Z,25.58
2017-04-28T23:10:28.180Z,26.55
2017-04-28T23:12:56.468Z,25.95
2017-04-28T23:15:24.785Z,27.37
2017-04-28T23:17:53.079Z,25.75
2017-04-28T23:20:21.400Z,27.22
2017-04-28T23:22:49.723Z,24.87
2017-04-28T23:25:18.007Z,26.90
2017-04-28T23:27:46.291Z,25.33
2017-04-28T23:30:14.617Z,24.97
2017-04-28T23:32:42.949Z,25.05
2017-04-28T23:35:11.236Z,24.57
2017-04-28T23:37:39.564Z,24.10
2017-04-28T23:40:08.585Z,24.97
2017-04-28T23:42:36.871Z,23.87
2017-04-28T23:45:05.189Z,24.88
2017-04-28T23:47:33.469Z,26.53
2017-04-28T23:50:01.842Z,27.30
2017-04-28T23:52:30.165Z,25.83
2017-04-28T23:54:58.454Z,26.22
2017-04-28T23:57:26.756Z,25.73
2017-04-28T23:59:55.068Z,27.12
